Time;durP1;ratioP1;P1;durP2;ratioP2;P2;SDS_P1;SDS_P2;PMS_P1;PMS_P2;Temp;Humidity;BMP_temperature;BMP_pressure;BME280_temperature;BME280_humidity;BME280_pressure;Samples;Min_cycle;Max_cycle;Signal;HPM_P1;HPM_P2
2022/09/11 00:00:51;;;;;;;4.57;2.70;;;;;;;;;;4994589;28;20027;-77
2022/09/11 00:03:18;;;;;;;5.47;3.10;;;;;;;;;;4994503;28;20033;-78
2022/09/11 00:05:44;;;;;;;6.00;2.95;;;;;;;;;;4995356;28;20476;-78
2022/09/11 00:08:11;;;;;;;6.57;3.10;;;;;;;;;;4992759;28;20037;-77
2022/09/11 00:10:41;;;;;;;6.03;3.25;;;;;;;;;;4995233;28;20464;-78
2022/09/11 00:13:18;;;;;;;6.45;3.10;;;;;;;;;;4994026;28;20034;-77
2022/09/11 00:15:44;;;;;;;5.43;3.00;;;;;;;;;;4995969;28;20033;-77
2022/09/11 00:18:12;;;;;;;4.57;3.13;;;;;;;;;;4995657;28;20030;-78
2022/09/11 00:20:38;;;;;;;6.22;3.10;;;;;;;;;;4993599;28;20027;-77
2022/09/11 00:23:06;;;;;;;7.72;3.50;;;;;;;;;;4995316;28;20026;-78
2022/09/11 00:25:39;;;;;;;7.30;3.40;;;;;;;;;;4998890;28;20094;-78
2022/09/11 00:28:05;;;;;;;4.30;3.15;;;;;;;;;;4996722;28;20027;-78
2022/09/11 00:30:31;;;;;;;6.65;3.33;;;;;;;;;;4994688;28;20058;-78
2022/09/11 00:32:56;;;;;;;6.53;3.50;;;;;;;;;;4994756;28;20030;-78
2022/09/11 00:35:23;;;;;;;4.63;3.30;;;;;;;;;;4994638;28;20161;-78
2022/09/11 00:37:48;;;;;;;6.78;3.30;;;;;;;;;;4994169;28;20396;-77
2022/09/11 00:40:15;;;;;;;5.55;2.97;;;;;;;;;;4994300;28;20030;-78
2022/09/11 00:42:41;;;;;;;8.07;3.80;;;;;;;;;;4992596;28;20034;-77
2022/09/11 00:45:07;;;;;;;10.48;4.18;;;;;;;;;;4993596;28;20026;-77
2022/09/11 00:47:34;;;;;;;5.03;3.75;;;;;;;;;;4995125;28;20105;-77
2022/09/11 00:50:08;;;;;;;6.50;4.00;;;;;;;;;;4995639;28;20101;-77
2022/09/11 00:52:38;;;;;;;8.48;4.10;;;;;;;;;;4994776;28;20101;-77
2022/09/11 00:55:11;;;;;;;5.35;3.92;;;;;;;;;;4994284;28;20113;-77
2022/09/11 00:57:43;;;;;;;6.78;4.25;;;;;;;;;;4995353;28;20029;-77
2022/09/11 01:00:09;;;;;;;7.28;4.28;;;;;;;;;;4993681;28;20033;-78
2022/09/11 01:02:37;;;;;;;7.07;3.90;;;;;;;;;;4993743;28;20026;-77
2022/09/11 01:05:03;;;;;;;5.43;3.47;;;;;;;;;;4995511;28;20031;-77
2022/09/11 01:07:29;;;;;;;7.90;4.47;;;;;;;;;;4996849;28;20030;-77
2022/09/11 01:09:55;;;;;;;5.47;3.60;;;;;;;;;;4998345;28;20037;-77
2022/09/11 01:12:59;;;;;;;7.15;3.33;;;;;;;;;;4998115;28;20026;-78
2022/09/11 01:15:46;;;;;;;5.93;3.47;;;;;;;;;;4993472;28;20161;-77
2022/09/11 01:18:25;;;;;;;4.72;3.22;;;;;;;;;;4998348;28;20037;-77
2022/09/11 01:21:07;;;;;;;6.32;3.47;;;;;;;;;;4997068;28;20026;-78
2022/09/11 01:23:36;;;;;;;4.35;3.13;;;;;;;;;;4996682;28;20030;-78
2022/09/11 01:26:23;;;;;;;9.02;3.80;;;;;;;;;;4997885;28;20049;-77
2022/09/11 01:28:56;;;;;;;5.53;3.00;;;;;;;;;;4996583;28;20022;-78
2022/09/11 01:31:26;;;;;;;7.20;3.17;;;;;;;;;;4996557;28;20177;-77
2022/09/11 01:34:19;;;;;;;8.55;3.35;;;;;;;;;;4996067;28;20026;-78
2022/09/11 01:36:52;;;;;;;5.45;3.30;;;;;;;;;;4988426;28;20053;-78
2022/09/11 01:39:20;;;;;;;7.40;3.30;;;;;;;;;;4997548;28;20037;-78
2022/09/11 01:42:03;;;;;;;5.97;2.72;;;;;;;;;;4997675;28;20097;-78
2022/09/11 01:44:35;;;;;;;4.20;3.00;;;;;;;;;;4998799;28;20438;-77
2022/09/11 01:47:04;;;;;;;4.10;3.30;;;;;;;;;;4998833;28;20112;-77
2022/09/11 01:49:37;;;;;;;5.75;3.10;;;;;;;;;;4998260;28;20073;-77
2022/09/11 01:52:07;;;;;;;6.93;3.20;;;;;;;;;;4998417;28;20026;-77
2022/09/11 01:54:40;;;;;;;8.38;3.10;;;;;;;;;;4997722;28;20086;-77
2022/09/11 01:57:10;;;;;;;5.22;2.75;;;;;;;;;;4998082;28;20030;-77
2022/09/11 01:59:42;;;;;;;4.28;2.78;;;;;;;;;;4997538;28;20038;-77
2022/09/11 02:02:11;;;;;;;4.38;3.20;;;;;;;;;;4996844;28;20034;-77
2022/09/11 02:04:45;;;;;;;3.95;2.63;;;;;;;;;;4996299;28;20435;-77
2022/09/11 02:07:15;;;;;;;3.50;2.90;;;;;;;;;;5020862;28;20542;-77
2022/09/11 02:09:49;;;;;;;3.80;2.85;;;;;;;;;;5021152;28;20070;-77
2022/09/11 02:12:19;;;;;;;5.18;2.92;;;;;;;;;;5013577;28;20057;-77
2022/09/11 02:14:48;;;;;;;4.50;2.63;;;;;;;;;;4997199;28;20018;-77
2022/09/11 02:17:23;;;;;;;4.93;2.90;;;;;;;;;;4997120;28;20036;-77
2022/09/11 02:19:50;;;;;;;4.90;2.63;;;;;;;;;;4996011;28;20373;-77
2022/09/11 02:22:16;;;;;;;5.00;2.92;;;;;;;;;;4998184;28;20026;-78
2022/09/11 02:24:41;;;;;;;7.32;3.10;;;;;;;;;;5000107;28;20030;-77
2022/09/11 02:27:12;;;;;;;3.78;2.58;;;;;;;;;;4996820;28;20082;-78
2022/09/11 02:29:38;;;;;;;7.30;2.83;;;;;;;;;;4996693;28;20391;-78
2022/09/11 02:32:03;;;;;;;4.30;2.63;;;;;;;;;;4997016;28;20018;-78
2022/09/11 02:34:34;;;;;;;4.88;2.53;;;;;;;;;;4996987;28;20015;-77
2022/09/11 02:37:07;;;;;;;4.78;2.58;;;;;;;;;;4996591;28;20498;-77
2022/09/11 02:39:54;;;;;;;3.67;2.63;;;;;;;;;;4996585;28;20026;-78
2022/09/11 02:42:24;;;;;;;4.53;2.55;;;;;;;;;;4996333;28;20069;-78
2022/09/11 02:44:59;;;;;;;3.72;2.40;;;;;;;;;;4995548;28;20027;-77
2022/09/11 02:47:33;;;;;;;3.63;2.55;;;;;;;;;;4997445;28;20027;-78
2022/09/11 02:50:12;;;;;;;5.18;2.58;;;;;;;;;;5000935;28;20030;-78
2022/09/11 02:53:01;;;;;;;4.20;2.70;;;;;;;;;;4996103;28;20113;-78
2022/09/11 02:55:50;;;;;;;4.32;2.83;;;;;;;;;;4997433;28;20026;-78
2022/09/11 02:58:22;;;;;;;6.25;2.47;;;;;;;;;;4997514;28;20124;-77
2022/09/11 03:00:47;;;;;;;10.10;5.05;;;;;;;;;;4997094;28;20029;-78
2022/09/11 03:03:13;;;;;;;7.78;4.15;;;;;;;;;;4997257;28;20384;-78
2022/09/11 03:05:39;;;;;;;8.75;4.35;;;;;;;;;;5001113;28;20026;-78
2022/09/11 03:08:04;;;;;;;6.25;3.42;;;;;;;;;;4997040;28;20030;-78
2022/09/11 03:10:30;;;;;;;4.40;3.05;;;;;;;;;;4997250;28;20032;-77
2022/09/11 03:12:57;;;;;;;6.63;3.10;;;;;;;;;;4995687;28;20042;-77
2022/09/11 03:15:22;;;;;;;3.75;2.67;;;;;;;;;;4995260;28;20260;-77
2022/09/11 03:17:47;;;;;;;5.03;2.53;;;;;;;;;;4994965;28;20026;-77
2022/09/11 03:20:13;;;;;;;5.20;2.60;;;;;;;;;;4996131;28;20259;-78
2022/09/11 03:22:38;;;;;;;3.97;2.50;;;;;;;;;;4994442;28;20256;-78
2022/09/11 03:25:04;;;;;;;4.53;2.33;;;;;;;;;;4995186;28;20022;-78
2022/09/11 03:27:29;;;;;;;4.90;2.35;;;;;;;;;;4994766;28;20392;-78
2022/09/11 03:29:55;;;;;;;4.05;2.80;;;;;;;;;;4994908;28;20025;-78
2022/09/11 03:32:21;;;;;;;3.97;2.40;;;;;;;;;;4997391;28;20025;-78
2022/09/11 03:34:47;;;;;;;4.82;2.50;;;;;;;;;;4997299;28;20558;-78
2022/09/11 03:37:14;;;;;;;4.60;2.60;;;;;;;;;;4997538;28;20026;-78
2022/09/11 03:39:39;;;;;;;9.13;2.60;;;;;;;;;;4996742;28;20113;-78
2022/09/11 03:42:05;;;;;;;3.53;2.47;;;;;;;;;;4994657;28;20074;-78
2022/09/11 03:44:30;;;;;;;5.00;2.80;;;;;;;;;;4996873;28;20279;-78
2022/09/11 03:46:56;;;;;;;3.83;2.67;;;;;;;;;;4996686;28;20554;-78
2022/09/11 03:49:21;;;;;;;3.83;2.53;;;;;;;;;;4996877;28;20750;-78
2022/09/11 03:51:46;;;;;;;3.13;2.47;;;;;;;;;;4995058;28;20030;-78
2022/09/11 03:54:14;;;;;;;3.05;2.47;;;;;;;;;;4995217;28;20263;-77
2022/09/11 03:56:39;;;;;;;3.95;2.50;;;;;;;;;;4994906;28;20510;-78
2022/09/11 03:59:04;;;;;;;4.63;2.60;;;;;;;;;;4995963;28;20030;-78
2022/09/11 04:01:30;;;;;;;5.63;2.90;;;;;;;;;;4996435;28;20022;-77
2022/09/11 04:03:55;;;;;;;3.90;2.60;;;;;;;;;;4996013;28;20382;-79
2022/09/11 04:06:21;;;;;;;6.80;2.60;;;;;;;;;;4995416;28;20058;-77
2022/09/11 04:08:46;;;;;;;4.93;2.58;;;;;;;;;;4995298;28;20022;-78
2022/09/11 04:11:12;;;;;;;3.40;2.60;;;;;;;;;;4994568;28;20484;-78
2022/09/11 04:13:39;;;;;;;4.55;2.45;;;;;;;;;;4995961;28;20283;-78
2022/09/11 04:16:09;;;;;;;5.78;2.45;;;;;;;;;;4995783;28;20102;-78
2022/09/11 04:18:36;;;;;;;4.18;2.22;;;;;;;;;;4994873;28;20053;-78
2022/09/11 04:21:10;;;;;;;5.47;2.83;;;;;;;;;;4995086;28;20030;-78
2022/09/11 04:23:35;;;;;;;3.33;2.70;;;;;;;;;;4994983;28;20034;-78
2022/09/11 04:26:01;;;;;;;3.90;2.45;;;;;;;;;;4995112;28;20082;-77
2022/09/11 04:28:28;;;;;;;4.15;2.50;;;;;;;;;;4995649;28;20026;-78
2022/09/11 04:30:53;;;;;;;6.45;2.55;;;;;;;;;;4995620;28;20030;-77
2022/09/11 04:33:18;;;;;;;4.05;2.22;;;;;;;;;;4994272;28;20037;-77
2022/09/11 04:35:44;;;;;;;4.85;2.33;;;;;;;;;;4995410;28;20030;-78
2022/09/11 04:38:09;;;;;;;5.03;2.37;;;;;;;;;;4995319;28;20026;-77
2022/09/11 04:40:34;;;;;;;3.30;2.20;;;;;;;;;;4994674;28;20259;-78
2022/09/11 04:43:00;;;;;;;3.70;1.98;;;;;;;;;;4994199;28;20268;-78
2022/09/11 04:45:26;;;;;;;2.33;1.90;;;;;;;;;;4994994;28;20034;-78
2022/09/11 04:47:52;;;;;;;4.00;2.35;;;;;;;;;;4994516;28;20049;-78
2022/09/11 04:50:17;;;;;;;3.03;2.38;;;;;;;;;;4994210;28;20022;-78
2022/09/11 04:52:43;;;;;;;3.53;2.10;;;;;;;;;;4998396;28;20030;-78
2022/09/11 04:55:10;;;;;;;2.35;2.13;;;;;;;;;;5000635;28;20097;-78
2022/09/11 04:57:35;;;;;;;4.35;2.30;;;;;;;;;;4997123;28;20115;-78
2022/09/11 05:00:00;;;;;;;3.00;2.20;;;;;;;;;;4996310;28;20112;-77
2022/09/11 05:02:25;;;;;;;3.75;2.40;;;;;;;;;;4995266;28;20275;-77
2022/09/11 05:04:51;;;;;;;3.17;2.53;;;;;;;;;;4995036;28;20437;-78
2022/09/11 05:07:16;;;;;;;4.80;2.25;;;;;;;;;;4995220;28;20673;-78
2022/09/11 05:09:41;;;;;;;5.30;2.33;;;;;;;;;;4995316;28;20034;-78
2022/09/11 05:12:06;;;;;;;4.90;2.63;;;;;;;;;;4994382;28;20267;-78
2022/09/11 05:14:31;;;;;;;3.87;2.43;;;;;;;;;;4992824;28;20248;-78
2022/09/11 05:16:57;;;;;;;3.20;2.23;;;;;;;;;;4995909;28;20270;-78
2022/09/11 05:19:24;;;;;;;3.92;2.15;;;;;;;;;;4995830;28;20248;-78
2022/09/11 05:21:49;;;;;;;4.55;2.00;;;;;;;;;;4993064;28;20026;-77
2022/09/11 05:24:15;;;;;;;3.28;2.25;;;;;;;;;;4994220;28;20053;-80
2022/09/11 05:26:40;;;;;;;2.67;2.25;;;;;;;;;;4996271;28;20023;-77
2022/09/11 05:29:09;;;;;;;3.90;2.30;;;;;;;;;;4995600;28;20439;-78
2022/09/11 05:31:35;;;;;;;4.82;2.67;;;;;;;;;;4997732;28;20390;-77
2022/09/11 05:34:02;;;;;;;8.25;2.70;;;;;;;;;;4995761;28;20484;-78
2022/09/11 05:36:29;;;;;;;4.82;2.80;;;;;;;;;;4995054;28;20030;-77
2022/09/11 05:38:55;;;;;;;4.22;2.60;;;;;;;;;;4994312;28;20085;-77
2022/09/11 05:41:20;;;;;;;4.28;2.40;;;;;;;;;;4996625;28;20438;-78
2022/09/11 05:43:45;;;;;;;4.03;2.70;;;;;;;;;;4994830;28;20023;-78
2022/09/11 05:46:13;;;;;;;3.42;2.47;;;;;;;;;;4996192;28;20030;-78
2022/09/11 05:48:39;;;;;;;6.72;3.08;;;;;;;;;;4994588;28;20034;-77
2022/09/11 05:51:09;;;;;;;3.20;2.25;;;;;;;;;;4993092;28;20121;-77
2022/09/11 05:53:34;;;;;;;4.88;2.75;;;;;;;;;;4995834;28;20029;-77
2022/09/11 05:56:06;;;;;;;5.90;2.97;;;;;;;;;;4996118;28;20026;-77
2022/09/11 05:58:31;;;;;;;3.45;2.53;;;;;;;;;;5000398;28;20022;-78
2022/09/11 06:01:06;;;;;;;3.67;2.70;;;;;;;;;;5002042;28;20104;-78
2022/09/11 06:03:31;;;;;;;4.90;2.90;;;;;;;;;;4999518;28;20483;-78
2022/09/11 06:05:59;;;;;;;3.80;2.78;;;;;;;;;;4999009;28;20030;-78
2022/09/11 06:08:24;;;;;;;3.38;2.60;;;;;;;;;;4998800;28;20399;-78
2022/09/11 06:10:49;;;;;;;3.53;2.90;;;;;;;;;;4997717;28;20033;-77
2022/09/11 06:13:16;;;;;;;3.87;2.63;;;;;;;;;;4998039;28;20291;-77
2022/09/11 06:15:45;;;;;;;4.85;2.72;;;;;;;;;;4997141;28;20278;-77
2022/09/11 06:18:11;;;;;;;5.53;2.90;;;;;;;;;;5000247;28;20090;-77
2022/09/11 06:20:36;;;;;;;4.32;2.60;;;;;;;;;;4998901;28;20058;-78
2022/09/11 06:23:02;;;;;;;4.90;2.80;;;;;;;;;;4997244;28;20037;-77
2022/09/11 06:25:27;;;;;;;4.93;2.83;;;;;;;;;;4996189;28;20333;-78
2022/09/11 06:27:52;;;;;;;4.50;2.80;;;;;;;;;;4999996;28;20310;-77
2022/09/11 06:30:17;;;;;;;6.73;3.27;;;;;;;;;;4999060;28;20252;-78
2022/09/11 06:32:42;;;;;;;6.27;2.67;;;;;;;;;;4997314;28;20306;-78
2022/09/11 06:35:09;;;;;;;3.33;2.70;;;;;;;;;;4999557;28;20399;-78
2022/09/11 06:37:34;;;;;;;4.43;2.95;;;;;;;;;;4997112;28;20264;-78
2022/09/11 06:40:00;;;;;;;4.22;2.72;;;;;;;;;;4998546;28;20188;-77
2022/09/11 06:42:26;;;;;;;3.80;2.97;;;;;;;;;;4996377;28;20029;-78
2022/09/11 06:44:52;;;;;;;6.38;3.13;;;;;;;;;;4995057;28;20089;-78
2022/09/11 06:47:17;;;;;;;5.25;3.75;;;;;;;;;;4997445;28;20029;-78
2022/09/11 06:49:42;;;;;;;6.60;3.43;;;;;;;;;;4996903;28;20411;-78
2022/09/11 06:52:08;;;;;;;4.67;3.23;;;;;;;;;;4995212;28;20696;-78
2022/09/11 06:54:33;;;;;;;6.53;3.95;;;;;;;;;;4997628;28;20650;-78
2022/09/11 06:56:58;;;;;;;6.97;4.20;;;;;;;;;;4996869;28;20408;-78
2022/09/11 06:59:24;;;;;;;5.77;4.07;;;;;;;;;;4996780;28;20630;-78
2022/09/11 07:01:50;;;;;;;8.35;4.18;;;;;;;;;;4995556;28;20290;-79
2022/09/11 07:04:15;;;;;;;6.25;4.68;;;;;;;;;;4995186;28;20492;-78
2022/09/11 07:06:40;;;;;;;7.53;4.47;;;;;;;;;;4996807;28;20023;-77
2022/09/11 07:09:06;;;;;;;6.03;4.67;;;;;;;;;;5000853;28;20026;-79
2022/09/11 07:11:33;;;;;;;6.63;4.43;;;;;;;;;;4997326;28;20256;-78
2022/09/11 07:14:00;;;;;;;6.65;4.85;;;;;;;;;;5003243;28;20279;-77
2022/09/11 07:16:26;;;;;;;9.70;5.45;;;;;;;;;;5018630;28;20108;-77
2022/09/11 07:18:51;;;;;;;7.28;4.45;;;;;;;;;;5018880;28;20058;-77
2022/09/11 07:21:20;;;;;;;5.68;4.70;;;;;;;;;;5008953;28;20396;-77
2022/09/11 07:23:48;;;;;;;9.57;5.35;;;;;;;;;;5016321;28;20022;-77
2022/09/11 07:26:13;;;;;;;8.25;5.35;;;;;;;;;;5007580;28;20054;-78
2022/09/11 07:28:39;;;;;;;8.80;5.07;;;;;;;;;;5001076;28;20022;-78
2022/09/11 07:31:11;;;;;;;7.70;5.57;;;;;;;;;;5002645;28;20271;-78
2022/09/11 07:33:46;;;;;;;7.93;5.22;;;;;;;;;;4995712;28;20029;-78
2022/09/11 07:36:17;;;;;;;6.97;4.82;;;;;;;;;;4995713;28;20033;-79
2022/09/11 07:38:44;;;;;;;6.15;5.03;;;;;;;;;;4995244;28;20027;-77
2022/09/11 07:41:09;;;;;;;8.02;5.00;;;;;;;;;;4995432;28;20479;-77
2022/09/11 07:43:40;;;;;;;6.50;4.97;;;;;;;;;;4994624;28;20121;-77
2022/09/11 07:46:05;;;;;;;8.30;4.43;;;;;;;;;;4994849;28;20033;-77
2022/09/11 07:48:31;;;;;;;8.85;4.97;;;;;;;;;;4995060;28;20065;-77
2022/09/11 07:51:03;;;;;;;5.70;4.47;;;;;;;;;;4993882;28;20030;-78
2022/09/11 07:53:33;;;;;;;6.40;4.93;;;;;;;;;;4995506;28;20098;-77
2022/09/11 07:56:03;;;;;;;7.57;4.57;;;;;;;;;;4993702;28;20391;-77
2022/09/11 07:58:37;;;;;;;5.75;4.28;;;;;;;;;;4994641;28;20555;-77
2022/09/11 08:01:07;;;;;;;;;;;;;;;;;;4993601;28;20102;-77
2022/09/11 08:03:33;;;;;;;6.63;4.30;;;;;;;;;;4995290;28;19997;-79
2022/09/11 08:06:00;;;;;;;6.63;4.47;;;;;;;;;;4996051;28;20030;-78
2022/09/11 08:08:27;;;;;;;6.95;4.95;;;;;;;;;;4996355;28;20105;-78
2022/09/11 08:10:54;;;;;;;5.80;4.68;;;;;;;;;;4995774;28;20030;-78
2022/09/11 08:13:19;;;;;;;7.07;4.65;;;;;;;;;;4994340;28;20622;-77
2022/09/11 08:15:46;;;;;;;8.90;4.57;;;;;;;;;;4994012;28;20066;-77
2022/09/11 08:18:12;;;;;;;5.45;4.10;;;;;;;;;;4995673;28;20054;-78
2022/09/11 08:20:37;;;;;;;6.47;4.50;;;;;;;;;;4997005;28;20037;-77
2022/09/11 08:23:02;;;;;;;7.07;4.80;;;;;;;;;;4999335;28;20025;-78
2022/09/11 08:25:27;;;;;;;6.82;4.40;;;;;;;;;;4998436;28;20280;-77
2022/09/11 08:27:53;;;;;;;7.45;4.82;;;;;;;;;;4992834;28;20551;-77
2022/09/11 08:30:18;;;;;;;7.57;4.80;;;;;;;;;;4992852;28;20085;-76
2022/09/11 08:32:44;;;;;;;8.00;4.53;;;;;;;;;;4995612;28;20026;-77
2022/09/11 08:35:09;;;;;;;5.50;3.97;;;;;;;;;;4996087;28;20303;-77
2022/09/11 08:37:34;;;;;;;7.50;4.40;;;;;;;;;;4994354;28;20057;-77
2022/09/11 08:40:00;;;;;;;8.43;5.07;;;;;;;;;;4993685;28;20264;-78
2022/09/11 08:42:26;;;;;;;6.63;4.47;;;;;;;;;;4992063;28;20264;-78
2022/09/11 08:44:55;;;;;;;6.75;4.60;;;;;;;;;;4992636;28;20384;-78
2022/09/11 08:47:24;;;;;;;9.02;4.75;;;;;;;;;;4990690;28;20531;-78
2022/09/11 08:50:14;;;;;;;8.77;5.80;;;;;;;;;;4991835;28;20061;-77
2022/09/11 08:52:41;;;;;;;8.85;5.90;;;;;;;;;;4990369;28;20033;-78
2022/09/11 08:55:12;;;;;;;9.80;6.03;;;;;;;;;;4991952;28;20030;-76
2022/09/11 08:58:10;;;;;;;8.52;5.88;;;;;;;;;;4991005;28;20084;-78
2022/09/11 09:00:42;;;;;;;16.70;6.95;;;;;;;;;;4990874;28;20514;-76
2022/09/11 09:03:41;;;;;;;15.23;7.35;;;;;;;;;;4992334;28;20038;-78
2022/09/11 09:06:25;;;;;;;12.57;7.03;;;;;;;;;;4992764;28;20060;-78
2022/09/11 09:09:02;;;;;;;11.18;6.93;;;;;;;;;;4991663;28;20040;-76
2022/09/11 09:11:44;;;;;;;12.63;6.57;;;;;;;;;;4991937;28;20057;-77
2022/09/11 09:14:30;;;;;;;12.88;7.22;;;;;;;;;;4991555;28;20026;-78
2022/09/11 09:17:01;;;;;;;15.40;8.82;;;;;;;;;;4988412;28;20034;-78
2022/09/11 09:19:38;;;;;;;15.80;8.68;;;;;;;;;;4990720;28;20037;-77
2022/09/11 09:22:20;;;;;;;18.77;7.75;;;;;;;;;;4989422;28;20034;-78
2022/09/11 09:24:52;;;;;;;15.32;8.90;;;;;;;;;;4992414;28;20062;-77
2022/09/11 09:27:24;;;;;;;13.07;8.43;;;;;;;;;;4990902;28;20488;-77
2022/09/11 09:29:56;;;;;;;16.17;9.52;;;;;;;;;;4995177;28;20034;-77
2022/09/11 09:32:30;;;;;;;12.38;8.48;;;;;;;;;;4994527;28;20026;-77
2022/09/11 09:34:57;;;;;;;;;;;;;;;;;;4993551;28;20029;-78
2022/09/11 09:37:25;;;;;;;13.27;8.52;;;;;;;;;;4993999;28;19916;-77
2022/09/11 09:39:50;;;;;;;18.15;9.43;;;;;;;;;;4994055;28;20030;-78
2022/09/11 09:42:37;;;;;;;15.20;9.60;;;;;;;;;;4993693;28;20037;-78
2022/09/11 09:45:30;;;;;;;13.93;8.95;;;;;;;;;;4994994;28;20049;-77
2022/09/11 09:47:56;;;;;;;13.15;9.30;;;;;;;;;;4995204;28;20499;-78
2022/09/11 09:50:33;;;;;;;13.80;9.98;;;;;;;;;;4996704;28;20050;-77
2022/09/11 09:53:12;;;;;;;14.57;9.32;;;;;;;;;;4996926;28;20034;-78
2022/09/11 09:55:39;;;;;;;12.63;9.30;;;;;;;;;;4994683;28;20037;-78
2022/09/11 09:58:06;;;;;;;14.77;10.10;;;;;;;;;;4994698;28;20111;-77
2022/09/11 10:00:32;;;;;;;12.75;9.18;;;;;;;;;;4996385;28;20034;-78
2022/09/11 10:02:57;;;;;;;13.55;9.32;;;;;;;;;;4998598;28;20053;-79
2022/09/11 10:05:42;;;;;;;18.95;9.70;;;;;;;;;;4996553;28;20488;-78
2022/09/11 10:08:32;;;;;;;16.17;10.48;;;;;;;;;;4994613;28;20038;-77
2022/09/11 10:11:00;;;;;;;16.15;10.23;;;;;;;;;;4993164;28;20400;-78
2022/09/11 10:13:28;;;;;;;16.58;10.63;;;;;;;;;;4992211;28;20408;-77
2022/09/11 10:15:58;;;;;;;14.95;9.60;;;;;;;;;;4994368;28;20192;-77
2022/09/11 10:18:36;;;;;;;15.38;9.95;;;;;;;;;;4991508;28;20030;-78
2022/09/11 10:21:10;;;;;;;14.38;9.48;;;;;;;;;;4995583;28;20030;-78
2022/09/11 10:23:49;;;;;;;11.73;9.55;;;;;;;;;;4996340;28;20049;-78
2022/09/11 10:26:17;;;;;;;12.07;9.68;;;;;;;;;;4991903;28;20030;-77
2022/09/11 10:28:44;;;;;;;15.90;9.95;;;;;;;;;;4994001;28;20022;-77
2022/09/11 10:31:13;;;;;;;16.27;10.55;;;;;;;;;;4996084;28;20036;-78
2022/09/11 10:33:40;;;;;;;18.80;10.85;;;;;;;;;;4996069;28;20041;-78
2022/09/11 10:36:08;;;;;;;18.25;12.10;;;;;;;;;;4995960;28;20030;-77
2022/09/11 10:38:41;;;;;;;16.10;11.48;;;;;;;;;;4993047;28;20033;-78
2022/09/11 10:41:12;;;;;;;17.60;12.20;;;;;;;;;;4992403;28;20030;-77
2022/09/11 10:43:47;;;;;;;14.55;10.35;;;;;;;;;;4992637;28;20853;-78
2022/09/11 10:46:27;;;;;;;16.92;11.32;;;;;;;;;;4993113;28;21802;-78
2022/09/11 10:48:58;;;;;;;18.50;11.95;;;;;;;;;;4996223;28;20049;-78
2022/09/11 10:51:27;;;;;;;15.52;10.70;;;;;;;;;;4994310;28;20037;-77
2022/09/11 10:54:13;;;;;;;14.82;10.43;;;;;;;;;;4993615;28;20026;-76
2022/09/11 10:56:54;;;;;;;18.67;11.00;;;;;;;;;;4992555;28;20053;-76
2022/09/11 10:59:29;;;;;;;14.77;9.70;;;;;;;;;;4992460;28;20492;-77
2022/09/11 11:01:55;;;;;;;14.93;9.70;;;;;;;;;;4994246;28;20028;-78
2022/09/11 11:04:20;;;;;;;17.17;9.27;;;;;;;;;;4993253;28;20036;-77
2022/09/11 11:07:09;;;;;;;16.58;9.55;;;;;;;;;;4992555;28;20485;-78
2022/09/11 11:09:54;;;;;;;14.07;9.20;;;;;;;;;;4995249;28;20654;-78
2022/09/11 11:12:34;;;;;;;13.32;8.55;;;;;;;;;;4995678;28;20062;-78
2022/09/11 11:15:21;;;;;;;12.57;8.90;;;;;;;;;;4995318;28;20121;-78
2022/09/11 11:18:19;;;;;;;14.95;9.57;;;;;;;;;;4992380;28;20049;-78
2022/09/11 11:21:24;;;;;;;13.32;8.15;;;;;;;;;;4995625;28;20030;-79
2022/09/11 11:24:16;;;;;;;13.20;7.63;;;;;;;;;;4995646;28;20050;-78
2022/09/11 11:26:56;;;;;;;12.77;7.78;;;;;;;;;;4996555;28;20034;-78
2022/09/11 11:29:43;;;;;;;12.15;7.50;;;;;;;;;;4995499;28;20027;-77
2022/09/11 11:32:26;;;;;;;10.80;7.68;;;;;;;;;;4991561;28;20022;-77
2022/09/11 11:35:16;;;;;;;11.57;7.90;;;;;;;;;;4997037;28;20101;-76
2022/09/11 11:37:45;;;;;;;13.40;7.57;;;;;;;;;;4995973;28;20403;-78
2022/09/11 11:40:30;;;;;;;10.98;7.45;;;;;;;;;;4994533;28;20024;-77
2022/09/11 11:43:16;;;;;;;11.70;7.75;;;;;;;;;;4992189;28;20038;-77
2022/09/11 11:45:45;;;;;;;10.25;7.30;;;;;;;;;;4994196;28;20022;-77
2022/09/11 11:48:17;;;;;;;11.15;7.00;;;;;;;;;;4994086;28;20034;-79
2022/09/11 11:50:46;;;;;;;10.05;6.38;;;;;;;;;;4993809;28;20035;-78
2022/09/11 11:53:26;;;;;;;11.43;7.50;;;;;;;;;;4990536;28;20567;-78
2022/09/11 11:56:28;;;;;;;13.55;8.25;;;;;;;;;;4992688;28;20041;-77
2022/09/11 11:59:00;;;;;;;12.60;8.07;;;;;;;;;;4990841;28;20033;-77
2022/09/11 12:01:47;;;;;;;11.25;7.57;;;;;;;;;;4995204;28;20038;-80
2022/09/11 12:04:31;;;;;;;10.23;7.70;;;;;;;;;;4994472;28;20041;-79
2022/09/11 12:06:58;;;;;;;12.05;6.55;;;;;;;;;;4994918;28;20038;-78
2022/09/11 12:09:23;;;;;;;13.07;8.02;;;;;;;;;;4994209;28;20035;-79
2022/09/11 12:11:51;;;;;;;12.95;7.80;;;;;;;;;;4995026;28;20034;-78
2022/09/11 12:14:25;;;;;;;9.63;6.47;;;;;;;;;;4994674;28;20030;-79
2022/09/11 12:16:51;;;;;;;10.13;6.53;;;;;;;;;;4995019;28;20488;-79
2022/09/11 12:19:19;;;;;;;10.32;6.65;;;;;;;;;;4994913;28;20049;-78
2022/09/11 12:21:54;;;;;;;10.40;6.35;;;;;;;;;;4994517;28;20483;-78
2022/09/11 12:24:21;;;;;;;7.40;5.63;;;;;;;;;;4991575;28;20038;-77
2022/09/11 12:27:25;;;;;;;8.82;5.53;;;;;;;;;;4993260;28;20080;-77
2022/09/11 12:29:56;;;;;;;7.77;5.43;;;;;;;;;;4991483;28;20080;-76
2022/09/11 12:32:27;;;;;;;10.93;6.30;;;;;;;;;;4993095;28;20030;-77
2022/09/11 12:34:53;;;;;;;10.13;5.72;;;;;;;;;;4993966;28;20090;-78
2022/09/11 12:37:36;;;;;;;6.87;5.13;;;;;;;;;;4993453;28;20070;-79
2022/09/11 12:40:33;;;;;;;9.07;5.75;;;;;;;;;;4991767;28;20030;-77
2022/09/11 12:43:17;;;;;;;11.13;5.32;;;;;;;;;;4983371;28;20407;-78
2022/09/11 12:45:43;;;;;;;8.50;5.38;;;;;;;;;;4995467;28;20050;-78
2022/09/11 12:48:19;;;;;;;8.55;5.97;;;;;;;;;;5010307;28;20042;-77
2022/09/11 12:50:49;;;;;;;11.73;7.15;;;;;;;;;;5006842;28;20022;-78
2022/09/11 12:53:21;;;;;;;11.57;6.47;;;;;;;;;;5007234;28;20026;-77
2022/09/11 12:55:59;;;;;;;10.85;6.97;;;;;;;;;;5001306;28;20026;-77
2022/09/11 12:58:37;;;;;;;11.38;7.22;;;;;;;;;;5003479;28;20034;-77
2022/09/11 13:01:09;;;;;;;13.60;7.85;;;;;;;;;;5002832;28;20113;-76
2022/09/11 13:03:36;;;;;;;11.55;6.90;;;;;;;;;;5009304;28;20030;-78
2022/09/11 13:06:09;;;;;;;11.13;6.90;;;;;;;;;;5012012;28;20034;-78
2022/09/11 13:08:58;;;;;;;10.10;6.68;;;;;;;;;;5009200;28;20070;-78
2022/09/11 13:11:42;;;;;;;11.05;6.93;;;;;;;;;;5008770;28;20100;-78
2022/09/11 13:14:26;;;;;;;;;;;;;;;;;;5010287;28;20029;-77
2022/09/11 13:16:52;;;;;;;10.45;6.95;;;;;;;;;;5013928;28;19940;-77
2022/09/11 13:19:20;;;;;;;9.80;6.50;;;;;;;;;;5011334;28;20478;-77
2022/09/11 13:21:50;;;;;;;8.35;6.20;;;;;;;;;;5017326;28;20090;-78
2022/09/11 13:24:24;;;;;;;9.50;6.40;;;;;;;;;;5010711;28;20294;-77
2022/09/11 13:26:56;;;;;;;10.90;6.70;;;;;;;;;;5005602;28;20034;-78
2022/09/11 13:29:23;;;;;;;7.95;6.07;;;;;;;;;;4997611;28;20030;-78
2022/09/11 13:31:49;;;;;;;10.77;6.63;;;;;;;;;;4997899;28;20038;-79
2022/09/11 13:34:16;;;;;;;9.80;6.30;;;;;;;;;;4998621;28;20034;-78
2022/09/11 13:36:41;;;;;;;9.32;6.18;;;;;;;;;;4996465;28;20030;-78
2022/09/11 13:39:07;;;;;;;7.60;5.97;;;;;;;;;;4994610;28;20084;-79
2022/09/11 13:41:41;;;;;;;9.23;6.20;;;;;;;;;;4996652;28;20103;-78
2022/09/11 13:44:24;;;;;;;7.67;5.33;;;;;;;;;;4996796;28;20475;-79
2022/09/11 13:46:50;;;;;;;10.15;5.95;;;;;;;;;;4995741;28;20267;-78
2022/09/11 13:49:16;;;;;;;9.43;5.88;;;;;;;;;;4994798;28;20508;-77
2022/09/11 13:51:46;;;;;;;8.33;5.83;;;;;;;;;;4994046;28;20066;-77
2022/09/11 13:54:20;;;;;;;7.97;5.78;;;;;;;;;;4993553;28;20228;-77
2022/09/11 13:56:54;;;;;;;7.95;5.28;;;;;;;;;;4992883;28;20022;-77
2022/09/11 13:59:43;;;;;;;6.15;4.55;;;;;;;;;;4997117;28;20515;-78
2022/09/11 14:02:27;;;;;;;8.25;4.80;;;;;;;;;;4994300;28;20030;-77
2022/09/11 14:05:00;;;;;;;7.43;5.30;;;;;;;;;;4996975;28;20034;-78
2022/09/11 14:07:26;;;;;;;6.33;4.67;;;;;;;;;;4993466;28;20040;-77
2022/09/11 14:10:03;;;;;;;11.75;5.78;;;;;;;;;;4994201;28;20272;-75
2022/09/11 14:12:30;;;;;;;11.00;4.85;;;;;;;;;;4993805;28;20057;-77
2022/09/11 14:15:01;;;;;;;7.25;4.97;;;;;;;;;;4993742;28;20034;-76
2022/09/11 14:17:28;;;;;;;8.35;5.30;;;;;;;;;;4993982;28;20035;-76
2022/09/11 14:19:59;;;;;;;7.72;4.90;;;;;;;;;;4993627;28;20041;-76
2022/09/11 14:22:29;;;;;;;6.78;5.10;;;;;;;;;;4995834;28;20026;-74
2022/09/11 14:25:04;;;;;;;7.32;4.43;;;;;;;;;;4993850;28;20052;-77
2022/09/11 14:27:29;;;;;;;7.45;4.40;;;;;;;;;;4996482;28;20184;-77
2022/09/11 14:29:54;;;;;;;7.67;4.20;;;;;;;;;;4997359;28;20512;-78
2022/09/11 14:32:35;;;;;;;7.13;4.43;;;;;;;;;;4996807;28;20022;-78
2022/09/11 14:35:02;;;;;;;7.30;3.78;;;;;;;;;;4999897;28;20102;-78
2022/09/11 14:37:33;;;;;;;7.20;4.05;;;;;;;;;;4999938;28;20037;-78
2022/09/11 14:40:12;;;;;;;6.22;4.20;;;;;;;;;;4999229;28;20445;-77
2022/09/11 14:42:40;;;;;;;5.05;3.58;;;;;;;;;;4997852;28;20045;-80
2022/09/11 14:45:16;;;;;;;5.00;3.53;;;;;;;;;;4994994;28;20105;-77
2022/09/11 14:47:43;;;;;;;5.20;3.50;;;;;;;;;;4993021;28;20026;-76
2022/09/11 14:50:11;;;;;;;6.97;4.10;;;;;;;;;;4997409;28;20029;-78
2022/09/11 14:52:38;;;;;;;7.55;3.65;;;;;;;;;;4998571;28;20113;-77
2022/09/11 14:55:05;;;;;;;6.55;3.70;;;;;;;;;;4994155;28;20027;-77
2022/09/11 14:57:33;;;;;;;6.00;3.40;;;;;;;;;;4995686;28;20030;-77
2022/09/11 14:59:58;;;;;;;6.43;3.70;;;;;;;;;;4995937;28;20030;-77
2022/09/11 15:02:26;;;;;;;5.18;3.78;;;;;;;;;;4996429;28;20523;-77